createdAt,value
2023-02-15T00:01:29.820Z,102756.00
2023-02-15T00:04:17.787Z,102751.88
2023-02-15T00:07:08.433Z,102757.84
2023-02-15T00:09:55.317Z,102747.03
2023-02-15T00:12:44.429Z,102750.97
2023-02-15T00:15:31.957Z,102748.94
2023-02-15T00:18:20.016Z,102754.06
2023-02-15T00:21:08.584Z,102747.13
2023-02-15T00:23:55.079Z,102738.19
2023-02-15T00:26:43.628Z,102740.94
2023-02-15T00:29:30.444Z,102744.56
2023-02-15T00:32:16.994Z,102739.97
2023-02-15T00:35:05.343Z,102738.38
2023-02-15T00:37:53.510Z,102740.19
2023-02-15T00:40:40.293Z,102740.69
2023-02-15T00:43:28.230Z,102739.09
2023-02-15T00:46:14.780Z,102732.66
2023-02-15T00:49:01.618Z,102739.53
2023-02-15T00:51:49.732Z,102739.59
2023-02-15T00:54:36.728Z,102744.06
2023-02-15T00:57:23.759Z,102736.28
2023-02-15T01:00:11.616Z,102729.09
2023-02-15T01:02:58.267Z,102721.97
2023-02-15T01:05:45.036Z,102727.38
2023-02-15T01:08:33.423Z,102718.94
2023-02-15T01:11:23.881Z,102715.59
2023-02-15T01:14:14.259Z,102715.50
2023-02-15T01:17:02.033Z,102717.59
2023-02-15T01:19:48.903Z,102708.72
2023-02-15T01:22:35.808Z,102705.00
2023-02-15T01:25:25.457Z,102706.25
2023-02-15T01:28:12.868Z,102656.28
2023-02-15T01:31:00.314Z,102702.06
2023-02-15T01:33:47.983Z,102703.00
2023-02-15T01:36:36.350Z,102702.28
2023-02-15T01:39:23.256Z,102696.34
2023-02-15T01:42:13.919Z,102686.47
2023-02-15T01:45:02.683Z,102692.03
2023-02-15T01:47:54.087Z,102693.78
2023-02-15T01:50:45.189Z,102692.38
2023-02-15T01:53:38.043Z,102695.81
2023-02-15T01:56:31.593Z,102684.66
2023-02-15T01:59:24.092Z,102684.44
2023-02-15T02:02:15.232Z,102678.63
2023-02-15T02:05:07.404Z,102673.19
2023-02-15T02:07:57.077Z,102665.66
2023-02-15T02:10:43.449Z,102659.72
2023-02-15T02:13:30.742Z,102654.06
2023-02-15T02:16:26.139Z,102646.84
2023-02-15T02:19:43.814Z,102650.84
2023-02-15T02:22:58.562Z,102648.44
2023-02-15T02:26:46.883Z,102643.03
2023-02-15T02:29:58.728Z,102653.59
2023-02-15T02:33:19.599Z,102634.69
2023-02-15T02:36:17.603Z,102636.34
2023-02-15T02:39:16.036Z,102631.75
2023-02-15T02:42:08.564Z,102628.13
2023-02-15T02:45:00.128Z,102623.91
2023-02-15T02:47:51.394Z,102611.63
2023-02-15T02:50:41.700Z,102630.31
2023-02-15T02:53:33.454Z,102627.66
2023-02-15T02:56:24.690Z,102630.03
2023-02-15T02:59:14.945Z,102631.22
2023-02-15T03:02:08.377Z,102629.00
2023-02-15T03:05:04.340Z,102629.16
2023-02-15T03:07:55.555Z,102631.06
2023-02-15T03:10:43.632Z,102631.63
2023-02-15T03:13:30.807Z,102626.34
2023-02-15T03:16:27.851Z,102626.78
2023-02-15T03:19:18.579Z,102625.16
2023-02-15T03:22:10.397Z,102612.88
2023-02-15T03:25:01.747Z,102603.03
2023-02-15T03:27:51.687Z,102603.72
2023-02-15T03:30:44.197Z,102591.19
2023-02-15T03:33:31.592Z,102589.25
2023-02-15T03:36:24.972Z,102593.16
2023-02-15T03:39:19.531Z,102592.97
2023-02-15T03:42:15.081Z,102594.72
2023-02-15T03:45:06.011Z,102591.81
2023-02-15T03:47:54.916Z,102597.53
2023-02-15T03:51:00.462Z,102598.03
2023-02-15T03:53:48.929Z,102577.44
2023-02-15T03:56:36.690Z,102589.03
2023-02-15T03:59:42.239Z,102582.75
2023-02-15T04:02:39.155Z,102587.78
2023-02-15T04:05:25.632Z,102586.00
2023-02-15T04:08:13.274Z,102585.00
2023-02-15T04:10:58.658Z,102591.03
2023-02-15T04:13:47.052Z,102588.19
2023-02-15T04:16:34.155Z,102582.88
2023-02-15T04:19:38.205Z,102584.66
2023-02-15T04:22:42.603Z,102572.38
2023-02-15T04:25:29.404Z,102571.47
2023-02-15T04:28:16.082Z,102555.81
2023-02-15T04:31:03.202Z,102564.47
2023-02-15T04:33:51.301Z,102560.16
2023-02-15T04:36:38.417Z,102548.81
2023-02-15T04:39:24.929Z,102545.16
2023-02-15T04:42:11.650Z,102538.25
2023-02-15T04:44:58.404Z,102545.06
2023-02-15T04:47:45.280Z,102533.88
2023-02-15T04:50:33.341Z,102527.81
2023-02-15T04:53:20.015Z,102530.53
2023-02-15T04:56:06.895Z,102515.69
2023-02-15T04:58:53.512Z,102518.38
2023-02-15T05:01:40.628Z,102513.97
2023-02-15T05:04:27.357Z,102514.13
2023-02-15T05:07:15.829Z,102516.84
2023-02-15T05:10:02.594Z,102508.88
2023-02-15T05:12:49.653Z,102510.63
2023-02-15T05:15:38.828Z,102496.53
2023-02-15T05:18:25.880Z,102497.22
2023-02-15T05:21:14.587Z,102501.59
2023-02-15T05:24:22.522Z,102507.09
2023-02-15T05:27:35.103Z,102513.75
2023-02-15T05:30:23.014Z,102515.75
2023-02-15T05:33:09.944Z,102464.19
2023-02-15T05:35:56.671Z,102508.06
2023-02-15T05:38:43.424Z,102516.59
2023-02-15T05:41:31.618Z,102504.69
2023-02-15T05:44:18.735Z,102501.81
2023-02-15T05:47:08.162Z,102496.69
2023-02-15T05:49:54.573Z,102494.44
2023-02-15T05:52:41.536Z,102492.81
2023-02-15T05:55:28.297Z,102491.38
2023-02-15T05:58:16.478Z,102488.75
2023-02-15T06:01:10.604Z,102484.47
2023-02-15T06:03:57.415Z,102487.13
2023-02-15T06:06:44.018Z,102483.47
2023-02-15T06:09:31.504Z,102479.31
2023-02-15T06:12:18.215Z,102486.88
2023-02-15T06:15:07.126Z,102483.19
2023-02-15T06:17:54.060Z,102483.50
2023-02-15T06:20:40.866Z,102473.06
2023-02-15T06:23:27.737Z,102470.28
2023-02-15T06:26:14.525Z,102476.34
2023-02-15T06:29:01.317Z,102472.69
2023-02-15T06:31:49.575Z,102371.78
2023-02-15T06:34:36.400Z,102460.78
2023-02-15T06:37:24.772Z,102452.84
2023-02-15T06:40:13.474Z,102462.13
2023-02-15T06:43:02.096Z,102463.41
2023-02-15T06:45:49.916Z,102465.31
2023-02-15T06:48:39.138Z,102466.06
2023-02-15T06:51:25.779Z,102467.16
2023-02-15T06:54:12.721Z,102468.41
2023-02-15T06:56:59.486Z,102456.38
2023-02-15T06:59:46.226Z,102456.38
2023-02-15T07:02:32.922Z,102461.03
2023-02-15T07:05:21.362Z,102468.88
2023-02-15T07:08:07.920Z,102464.91
2023-02-15T07:11:17.474Z,102466.03
2023-02-15T07:14:04.206Z,102463.34
2023-02-15T07:16:51.188Z,102463.44
2023-02-15T07:19:38.076Z,102463.53
2023-02-15T07:22:26.254Z,102449.97
2023-02-15T07:25:14.235Z,102451.38
2023-02-15T07:28:03.388Z,102454.13
2023-02-15T07:30:50.266Z,102449.22
2023-02-15T07:33:37.011Z,102442.38
2023-02-15T07:36:23.599Z,102438.16
2023-02-15T07:39:11.793Z,102433.91
2023-02-15T07:41:58.500Z,102430.88
2023-02-15T07:44:50.463Z,102435.75
2023-02-15T07:47:37.250Z,102431.34
2023-02-15T07:50:24.130Z,102425.31
2023-02-15T07:53:10.833Z,102420.19
2023-02-15T07:56:01.732Z,102408.75
2023-02-15T07:58:56.668Z,102410.38
2023-02-15T08:01:43.135Z,102400.78
2023-02-15T08:04:29.991Z,102408.53
2023-02-15T08:07:16.804Z,102405.88
2023-02-15T08:10:04.536Z,102406.47
2023-02-15T08:12:53.645Z,102408.41
2023-02-15T08:15:41.421Z,102393.19
2023-02-15T08:18:28.829Z,102394.66
2023-02-15T08:21:16.958Z,102392.16
2023-02-15T08:24:06.047Z,102388.72
2023-02-15T08:26:54.880Z,102388.72
2023-02-15T08:29:44.465Z,102390.34
2023-02-15T08:32:32.116Z,102389.66
2023-02-15T08:35:19.716Z,102389.84
2023-02-15T08:38:07.096Z,102387.47
2023-02-15T08:40:54.535Z,102384.19
2023-02-15T08:43:41.707Z,102380.97
2023-02-15T08:46:31.007Z,102374.97
2023-02-15T08:49:20.801Z,102375.38
2023-02-15T08:52:08.110Z,102372.03
2023-02-15T08:54:54.960Z,102365.28
2023-02-15T08:57:45.917Z,102359.91
2023-02-15T09:00:32.615Z,102367.38
2023-02-15T09:03:20.809Z,102365.59
2023-02-15T09:06:08.716Z,102357.94
2023-02-15T09:08:55.813Z,102364.53
2023-02-15T09:11:44.273Z,102367.25
2023-02-15T09:14:30.814Z,102365.53
2023-02-15T09:17:17.538Z,102363.13
2023-02-15T09:20:07.614Z,102371.84
2023-02-15T09:22:58.115Z,102371.84
2023-02-15T09:25:45.935Z,102369.94
2023-02-15T09:28:33.689Z,102383.06
2023-02-15T09:31:24.327Z,102379.44
2023-02-15T09:34:11.014Z,102385.34
2023-02-15T09:36:59.299Z,102378.75
2023-02-15T09:39:48.862Z,102372.66
2023-02-15T09:42:56.414Z,102372.81
2023-02-15T09:46:04.466Z,102372.69
2023-02-15T09:48:59.326Z,102370.34
2023-02-15T09:52:10.630Z,102366.91
2023-02-15T09:55:13.331Z,102366.34
2023-02-15T09:58:10.041Z,102362.25
2023-02-15T10:01:03.627Z,102355.50
2023-02-15T10:04:11.073Z,102347.78
2023-02-15T10:07:07.751Z,102356.41
2023-02-15T10:10:14.345Z,102349.53
2023-02-15T10:13:16.513Z,102355.94
2023-02-15T10:16:20.736Z,102350.03
2023-02-15T10:19:19.915Z,102344.59
2023-02-15T10:22:23.326Z,102342.94
2023-02-15T10:25:32.446Z,102338.72
2023-02-15T10:28:22.823Z,102327.69
2023-02-15T10:31:22.496Z,102327.63
2023-02-15T10:34:20.471Z,102326.72
2023-02-15T10:37:26.606Z,102321.69
2023-02-15T10:40:21.231Z,102324.38
2023-02-15T10:43:26.730Z,102314.81
2023-02-15T10:46:25.056Z,102309.63
2023-02-15T10:49:43.158Z,102309.81
2023-02-15T10:52:42.981Z,102304.34
2023-02-15T10:55:41.557Z,102303.66
2023-02-15T10:58:45.953Z,102293.75
2023-02-15T11:01:36.947Z,102295.66
2023-02-15T11:04:42.166Z,102291.19
2023-02-15T11:07:34.660Z,102292.28
2023-02-15T11:10:32.318Z,102287.13
2023-02-15T11:13:21.193Z,102291.53
2023-02-15T11:16:17.653Z,102288.25
2023-02-15T11:19:11.365Z,102288.34
2023-02-15T11:22:03.139Z,102276.13
2023-02-15T11:24:51.451Z,102278.66
2023-02-15T11:27:42.537Z,102263.84
2023-02-15T11:30:42.627Z,102271.03
2023-02-15T11:33:36.530Z,102270.22
2023-02-15T11:36:27.510Z,102266.63
2023-02-15T11:39:18.766Z,102263.13
2023-02-15T11:42:14.261Z,102260.69
2023-02-15T11:45:07.203Z,102262.47
2023-02-15T11:47:55.857Z,102262.63
2023-02-15T11:50:47.202Z,102258.22
2023-02-15T11:53:40.817Z,102259.19
2023-02-15T11:56:30.341Z,102257.44
2023-02-15T11:59:29.261Z,102260.03
2023-02-15T12:02:23.560Z,102247.66
2023-02-15T12:05:20.858Z,102254.56
2023-02-15T12:08:18.289Z,102247.81
2023-02-15T12:11:13.402Z,102196.00
2023-02-15T12:14:05.068Z,102245.34
2023-02-15T12:16:55.568Z,102243.47
2023-02-15T12:19:42.762Z,102233.00
2023-02-15T12:22:32.699Z,102228.59
2023-02-15T12:25:28.025Z,102234.75
2023-02-15T12:28:29.073Z,102237.41
2023-02-15T12:31:23.767Z,102226.78
2023-02-15T12:34:15.569Z,102225.84
2023-02-15T12:37:10.350Z,102211.81
2023-02-15T12:39:59.065Z,102216.97
2023-02-15T12:42:47.767Z,102217.00
2023-02-15T12:45:36.238Z,102212.63
2023-02-15T12:48:22.977Z,102195.91
2023-02-15T12:51:11.729Z,102206.59
2023-02-15T12:54:02.016Z,102199.63
2023-02-15T12:56:48.586Z,102198.69
2023-02-15T12:59:38.776Z,102193.56
2023-02-15T13:02:31.949Z,102191.81
2023-02-15T13:05:24.665Z,102190.09
2023-02-15T13:08:15.948Z,102185.72
2023-02-15T13:11:05.807Z,102168.22
2023-02-15T13:13:55.067Z,102163.03
2023-02-15T13:16:46.858Z,102163.03
2023-02-15T13:19:38.052Z,102155.13
2023-02-15T13:22:30.297Z,102141.06
2023-02-15T13:25:21.924Z,102137.53
2023-02-15T13:28:12.770Z,102129.63
2023-02-15T13:31:00.903Z,102131.38
2023-02-15T13:33:53.689Z,102130.53
2023-02-15T13:36:47.168Z,102136.69
2023-02-15T13:39:41.751Z,102127.00
2023-02-15T13:42:34.724Z,102119.06
2023-02-15T13:45:38.633Z,102112.91
2023-02-15T13:48:46.952Z,102108.53
2023-02-15T13:51:45.320Z,102114.66
2023-02-15T13:54:45.546Z,102112.03
2023-02-15T13:57:53.790Z,102116.44
2023-02-15T14:00:50.076Z,102117.31
2023-02-15T14:04:05.665Z,102110.28
2023-02-15T14:07:36.498Z,102113.81
2023-02-15T14:10:47.002Z,102106.78
2023-02-15T14:13:54.561Z,102119.97
2023-02-15T14:17:05.739Z,102116.44
2023-02-15T14:19:56.963Z,102114.69
2023-02-15T14:22:51.088Z,102121.72
2023-02-15T14:25:42.463Z,102114.69
2023-02-15T14:28:37.083Z,102118.19
2023-02-15T14:31:42.981Z,102112.03
2023-02-15T14:34:44.280Z,102105.00
2023-02-15T14:37:43.032Z,102099.72
2023-02-15T14:40:58.076Z,102101.47
2023-02-15T14:43:57.083Z,102095.34
2023-02-15T14:46:50.624Z,102099.72
2023-02-15T14:49:40.109Z,102092.69
2023-02-15T14:52:27.064Z,102098.84
2023-02-15T14:55:38.633Z,102097.09
2023-02-15T14:58:25.650Z,102090.94
2023-02-15T15:01:13.776Z,102080.38
2023-02-15T15:04:04.672Z,102075.09
2023-02-15T15:07:02.924Z,102074.22
2023-02-15T15:10:01.320Z,102068.94
2023-02-15T15:12:50.746Z,102069.81
2023-02-15T15:15:47.507Z,102064.53
2023-02-15T15:18:52.149Z,102068.03
2023-02-15T15:21:56.061Z,102072.47
2023-02-15T15:24:54.574Z,102072.44
2023-02-15T15:27:46.901Z,102078.63
2023-02-15T15:30:55.692Z,102076.84
2023-02-15T15:34:17.169Z,102076.88
2023-02-15T15:37:49.497Z,102078.63
2023-02-15T15:41:09.958Z,102075.13
2023-02-15T15:44:39.012Z,102075.13
2023-02-15T15:47:44.850Z,102081.25
2023-02-15T15:50:33.359Z,102072.41
2023-02-15T15:53:22.911Z,102074.13
2023-02-15T15:56:16.322Z,102078.50
2023-02-15T15:59:05.981Z,102067.06
2023-02-15T16:01:53.140Z,102065.31
2023-02-15T16:04:41.240Z,102059.09
2023-02-15T16:07:28.445Z,102061.78
2023-02-15T16:10:23.966Z,102060.78
2023-02-15T16:13:15.929Z,102065.97
2023-02-15T16:16:03.032Z,102050.13
2023-02-15T16:18:50.815Z,102044.84
2023-02-15T16:21:39.751Z,102045.75
2023-02-15T16:25:11.933Z,102045.69
2023-02-15T16:27:58.474Z,102049.16
2023-02-15T16:30:45.615Z,102047.22
2023-02-15T16:33:38.468Z,102040.00
2023-02-15T16:36:27.904Z,102043.34
2023-02-15T16:39:25.188Z,102038.88
2023-02-15T16:42:16.528Z,102010.59
2023-02-15T16:45:14.203Z,102046.63
2023-02-15T16:48:07.641Z,102038.59
2023-02-15T16:50:57.816Z,102041.13
2023-02-15T16:53:49.365Z,102045.44
2023-02-15T16:56:38.444Z,102039.13
2023-02-15T16:59:34.356Z,102038.91
2023-02-15T17:02:42.977Z,102045.75
2023-02-15T17:05:33.311Z,102045.63
2023-02-15T17:08:21.701Z,102040.28
2023-02-15T17:11:19.883Z,102039.41
2023-02-15T17:14:21.912Z,102052.47
2023-02-15T17:17:10.211Z,102044.63
2023-02-15T17:19:57.565Z,102040.34
2023-02-15T17:22:44.058Z,102037.56
2023-02-15T17:25:38.985Z,102032.22
2023-02-15T17:28:29.269Z,102033.09
2023-02-15T17:31:20.309Z,102045.16
2023-02-15T17:34:07.197Z,102031.00
2023-02-15T17:37:00.882Z,102045.00
2023-02-15T17:39:48.736Z,102037.94
2023-02-15T17:42:35.356Z,102043.34
2023-02-15T17:45:23.721Z,102045.66
2023-02-15T17:48:24.600Z,102041.09
2023-02-15T17:51:15.195Z,102034.09
2023-02-15T17:54:19.160Z,102035.78
2023-02-15T17:57:11.432Z,102037.28
2023-02-15T18:00:17.020Z,102039.81
2023-02-15T18:03:21.385Z,102035.72
2023-02-15T18:06:27.791Z,102033.88
2023-02-15T18:09:33.999Z,102034.56
2023-02-15T18:12:22.905Z,102034.56
2023-02-15T18:15:13.146Z,102026.63
2023-02-15T18:18:00.306Z,102032.41
2023-02-15T18:20:46.883Z,102034.94
2023-02-15T18:23:35.088Z,102024.41
2023-02-15T18:26:23.810Z,102031.38
2023-02-15T18:29:11.108Z,102036.34
2023-02-15T18:31:59.590Z,102025.81
2023-02-15T18:34:48.037Z,102017.09
2023-02-15T18:37:35.299Z,102019.78
2023-02-15T18:40:26.858Z,101996.78
2023-02-15T18:43:14.449Z,102014.88
2023-02-15T18:46:01.199Z,102014.91
2023-02-15T18:48:47.842Z,102012.81
2023-02-15T18:51:39.972Z,102018.59
2023-02-15T18:54:27.012Z,102006.19
2023-02-15T18:57:17.260Z,102004.38
2023-02-15T19:00:05.820Z,102006.06
2023-02-15T19:02:52.576Z,101995.72
2023-02-15T19:05:39.124Z,102000.88
2023-02-15T19:08:25.955Z,101994.63
2023-02-15T19:11:16.594Z,101953.16
2023-02-15T19:14:09.386Z,101996.88
2023-02-15T19:16:56.715Z,101998.56
2023-02-15T19:19:43.243Z,102002.09
2023-02-15T19:22:32.806Z,101996.69
2023-02-15T19:25:22.690Z,101991.47
2023-02-15T19:28:17.141Z,101988.66
2023-02-15T19:31:05.681Z,101983.66
2023-02-15T19:33:53.124Z,101982.59
2023-02-15T19:36:39.594Z,101976.34
2023-02-15T19:39:30.012Z,101977.94
2023-02-15T19:42:19.856Z,101977.03
2023-02-15T19:45:14.963Z,101925.41
2023-02-15T19:48:03.371Z,101920.25
2023-02-15T19:50:50.547Z,101971.09
2023-02-15T19:53:37.118Z,101970.00
2023-02-15T19:56:27.024Z,101965.81
2023-02-15T19:59:23.118Z,101952.53
2023-02-15T20:02:14.687Z,101951.41
2023-02-15T20:05:02.918Z,101948.00
2023-02-15T20:07:52.084Z,101943.47
2023-02-15T20:10:39.285Z,101934.94
2023-02-15T20:13:26.437Z,101939.00
2023-02-15T20:16:13.100Z,101931.72
2023-02-15T20:18:59.869Z,101936.25
2023-02-15T20:21:54.527Z,101931.75
2023-02-15T20:24:40.971Z,101926.31
2023-02-15T20:27:27.641Z,101921.00
2023-02-15T20:30:19.822Z,101921.91
2023-02-15T20:33:07.720Z,101924.47
2023-02-15T20:35:54.538Z,101911.44
2023-02-15T20:38:42.848Z,101909.16
2023-02-15T20:41:39.244Z,101912.59
2023-02-15T20:44:27.793Z,101914.84
2023-02-15T20:47:14.284Z,101920.78
2023-02-15T20:50:01.934Z,101915.88
2023-02-15T20:52:50.567Z,101887.72
2023-02-15T20:55:39.729Z,101923.44
2023-02-15T20:58:30.226Z,101919.78
2023-02-15T21:01:19.859Z,101921.56
2023-02-15T21:04:08.825Z,101921.59
2023-02-15T21:06:56.215Z,101923.78
2023-02-15T21:09:42.777Z,101930.31
2023-02-15T21:12:31.282Z,101921.25
2023-02-15T21:15:31.747Z,101925.63
2023-02-15T21:18:21.767Z,101928.19
2023-02-15T21:21:08.277Z,101921.28
2023-02-15T21:23:55.419Z,101912.75
2023-02-15T21:26:46.041Z,101911.81
2023-02-15T21:29:33.943Z,101915.13
2023-02-15T21:32:20.775Z,101910.63
2023-02-15T21:35:07.986Z,101912.34
2023-02-15T21:37:55.104Z,101908.75
2023-02-15T21:40:41.943Z,101909.75
2023-02-15T21:43:46.164Z,101915.03
2023-02-15T21:46:51.519Z,101915.66
2023-02-15T21:49:38.297Z,101916.44
2023-02-15T21:52:24.124Z,101919.06
2023-02-15T21:55:14.957Z,101918.22
2023-02-15T21:58:01.923Z,101921.88
2023-02-15T22:00:49.594Z,101930.34
2023-02-15T22:03:39.659Z,101918.31
2023-02-15T22:06:26.375Z,101919.38
2023-02-15T22:09:17.808Z,101917.72
2023-02-15T22:12:05.213Z,101910.41
2023-02-15T22:14:54.647Z,101918.19
2023-02-15T22:17:41.247Z,101916.25
2023-02-15T22:20:29.570Z,101918.81
2023-02-15T22:23:16.290Z,101909.94
2023-02-15T22:26:07.638Z,101922.97
2023-02-15T22:28:54.468Z,101916.03
2023-02-15T22:31:42.105Z,101917.81
2023-02-15T22:34:32.280Z,101916.94
2023-02-15T22:37:21.229Z,101909.16
2023-02-15T22:40:09.685Z,101913.59
2023-02-15T22:42:58.697Z,101907.38
2023-02-15T22:45:46.621Z,101906.50
2023-02-15T22:48:34.738Z,101898.53
2023-02-15T22:51:24.039Z,101905.34
2023-02-15T22:54:12.312Z,101903.09
2023-02-15T22:57:00.932Z,101895.22
2023-02-15T22:59:47.976Z,101898.44
2023-02-15T23:02:34.865Z,101900.06
2023-02-15T23:05:23.917Z,101894.78
2023-02-15T23:08:11.445Z,101889.69
2023-02-15T23:10:59.457Z,101884.94
2023-02-15T23:13:46.146Z,101883.50
2023-02-15T23:16:34.889Z,101891.03
2023-02-15T23:19:22.353Z,101873.75
2023-02-15T23:22:13.791Z,101882.38
2023-02-15T23:25:00.668Z,101888.38
2023-02-15T23:27:57.966Z,101884.25
2023-02-15T23:30:44.634Z,101883.09
2023-02-15T23:33:34.926Z,101881.03
2023-02-15T23:36:27.792Z,101882.44
2023-02-15T23:39:33.929Z,101883.09
2023-02-15T23:42:25.196Z,101887.28
2023-02-15T23:45:23.269Z,101880.34
2023-02-15T23:48:33.704Z,101880.38
2023-02-15T23:51:20.991Z,101886.47
2023-02-15T23:54:07.767Z,101874.41
2023-02-15T23:56:59.207Z,101877.56
2023-02-15T23:59:46.097Z,101878.38
